Terminal Aerodrome Forecast
Issued by NWS Wilmington, OH

Home | Current Version | Previous Version | Text Only | Print | Product List | Glossary On
Versions: 1 2 3 4 5 6 7 8 9 10 11 12 13 14 15 16 17 18 19 20 21 22 23 24 25 26 27
000
FTUS41 KILN 182331
TAFCMH
TAF
KCMH 182331Z 1900/1924 22014G24KT P6SM SCT080 BKN120 OVC230
     FM190700 17011G21KT P6SM SHRA OVC050
     FM191100 15012G22KT P6SM SHRA OVC025 WS020/19035KT
     FM191500 22013G23KT P6SM -SHRA OVC015
     FM192200 36013G23KT P6SM OVC015=

USA.gov is the U.S. government's official web portal to all federal, state and local government web resources and services.